Terminal Aerodrome Forecast
Issued by NWS

Home | Current Version | Previous Version | Text Only | Print | Product List | Glossary On
Versions: 1 2 3 4 5 6 7 8 9 10 11 12 13 14 15 16
000
FTAK31 PAJN 182300
TAFAYA
TAF
PAYA 182320Z 1900/1924 11015G25KT 4SM -RA BR OVC020 WS020/12035KT
      TEMPO 1900/1904 2SM RA OVC015
     FM190400 10015G22KT 3SM RA BR OVC010 WS020/13040KT
     FM191200 11015G25KT 4SM RA BR OVC012 WS020/13035KT
     FM191700 13012KT 5SM -RA OVC020 WS020/12040KT
     FM192100 VRB06KT 6SM -RA OVC030 WS020/15040KT
      AMD LTD TO CLD VIS AND WIND 1901/1910=

USA.gov is the U.S. government's official web portal to all federal, state and local government web resources and services.